createdAt,value
2023-05-16T00:01:51.715Z,98597.91
2023-05-16T00:04:20.315Z,98597.90
2023-05-16T00:06:48.672Z,98595.02
2023-05-16T00:09:17.623Z,98595.95
2023-05-16T00:11:48.401Z,98597.27
2023-05-16T00:14:16.806Z,98599.30
2023-05-16T00:16:44.962Z,98602.23
2023-05-16T00:19:13.892Z,98604.87
2023-05-16T00:21:42.418Z,98609.39
2023-05-16T00:24:10.616Z,98618.19
2023-05-16T00:26:39.008Z,98620.63
2023-05-16T00:29:07.425Z,98624.17
2023-05-16T00:31:35.924Z,98623.77
2023-05-16T00:34:04.487Z,98628.88
2023-05-16T00:36:33.174Z,98630.77
2023-05-16T00:39:01.482Z,98629.98
2023-05-16T00:41:30.767Z,98635.48
2023-05-16T00:43:59.118Z,98641.45
2023-05-16T00:46:27.266Z,98640.44
2023-05-16T00:48:55.578Z,98641.64
2023-05-16T00:51:24.480Z,98635.74
2023-05-16T00:53:53.717Z,98631.39
2023-05-16T00:56:22.639Z,98629.16
2023-05-16T00:58:51.201Z,98633.27
2023-05-16T01:01:23.867Z,98637.27
2023-05-16T01:03:55.337Z,98638.27
2023-05-16T01:06:23.909Z,98640.55
2023-05-16T01:08:52.244Z,98636.98
2023-05-16T01:11:34.752Z,98635.59
2023-05-16T01:14:26.792Z,98639.33
2023-05-16T01:17:20.476Z,98636.12
2023-05-16T01:20:15.386Z,98631.17
2023-05-16T01:22:47.949Z,98625.05
2023-05-16T01:25:36.712Z,98625.34
2023-05-16T01:28:06.730Z,98625.17
2023-05-16T01:30:44.050Z,98632.26
2023-05-16T01:33:12.573Z,98633.89
2023-05-16T01:35:59.929Z,98625.68
2023-05-16T01:38:36.904Z,98619.17
2023-05-16T01:41:28.150Z,98617.80
2023-05-16T01:44:05.808Z,98619.21
2023-05-16T01:46:41.525Z,98624.06
2023-05-16T01:49:27.982Z,98623.51
2023-05-16T01:52:02.189Z,98628.16
2023-05-16T01:54:33.439Z,98625.63
2023-05-16T01:57:08.244Z,98626.35
2023-05-16T01:59:37.720Z,98621.93
2023-05-16T02:02:06.203Z,98624.98
2023-05-16T02:04:34.539Z,98628.38
2023-05-16T02:07:03.024Z,98627.01
2023-05-16T02:09:31.389Z,98623.50
2023-05-16T02:12:01.246Z,98618.05
2023-05-16T02:14:30.789Z,98616.20
2023-05-16T02:16:59.158Z,98621.48
2023-05-16T02:19:27.353Z,98620.65
2023-05-16T02:21:55.594Z,98618.81
2023-05-16T02:24:23.968Z,98620.58
2023-05-16T02:26:52.181Z,98626.85
2023-05-16T02:29:20.461Z,98635.40
2023-05-16T02:31:48.728Z,98636.34
2023-05-16T02:34:16.962Z,98631.48
2023-05-16T02:36:45.479Z,98630.48
2023-05-16T02:39:13.655Z,98628.27
2023-05-16T02:41:41.986Z,98631.69
2023-05-16T02:44:11.240Z,98635.48
2023-05-16T02:46:39.789Z,98636.30
2023-05-16T02:49:08.036Z,98631.88
2023-05-16T02:51:36.442Z,98631.26
2023-05-16T02:54:05.028Z,98638.02
2023-05-16T02:56:33.337Z,98638.27
2023-05-16T02:59:01.899Z,98639.98
2023-05-16T03:01:30.706Z,98641.94
2023-05-16T03:04:00.087Z,98649.38
2023-05-16T03:06:28.513Z,98652.45
2023-05-16T03:08:56.731Z,98656.77
2023-05-16T03:11:26.137Z,98661.30
2023-05-16T03:13:54.576Z,98662.59
2023-05-16T03:16:22.976Z,98657.83
2023-05-16T03:18:53.165Z,98658.78
2023-05-16T03:21:21.580Z,98654.77
2023-05-16T03:23:49.915Z,98658.36
2023-05-16T03:26:18.372Z,98650.73
2023-05-16T03:28:46.724Z,98645.30
2023-05-16T03:31:15.256Z,98644.70
2023-05-16T03:33:43.626Z,98643.75
2023-05-16T03:36:12.100Z,98650.96
2023-05-16T03:38:40.692Z,98656.43
2023-05-16T03:41:08.959Z,98665.75
2023-05-16T03:43:37.851Z,98669.76
2023-05-16T03:46:06.154Z,98674.69
2023-05-16T03:48:34.569Z,98672.72
2023-05-16T03:51:02.795Z,98670.58
2023-05-16T03:53:31.036Z,98667.83
2023-05-16T03:55:59.878Z,98666.52
2023-05-16T03:58:28.366Z,98666.63
2023-05-16T04:00:56.560Z,98661.67
2023-05-16T04:03:28.869Z,98660.96
2023-05-16T04:05:57.673Z,98657.60
2023-05-16T04:08:26.119Z,98654.59
2023-05-16T04:10:54.667Z,98662.89
2023-05-16T04:13:23.144Z,98669.06
2023-05-16T04:15:51.498Z,98676.93
2023-05-16T04:18:19.697Z,98681.34
2023-05-16T04:20:48.070Z,98679.77
2023-05-16T04:23:16.441Z,98681.98
2023-05-16T04:25:44.930Z,98681.32
2023-05-16T04:28:13.776Z,98678.23
2023-05-16T04:30:42.107Z,98679.45
2023-05-16T04:33:10.528Z,98678.27
2023-05-16T04:35:39.866Z,98678.08
2023-05-16T04:38:08.921Z,98678.96
2023-05-16T04:40:37.903Z,98682.92
2023-05-16T04:43:06.977Z,98689.33
2023-05-16T04:45:37.493Z,98691.29
2023-05-16T04:48:08.893Z,98694.52
2023-05-16T04:50:37.376Z,98695.16
2023-05-16T04:53:05.776Z,98693.55
2023-05-16T04:55:40.906Z,98693.95
2023-05-16T04:58:17.975Z,98690.15
2023-05-16T05:00:53.523Z,98679.80
2023-05-16T05:03:24.520Z,98678.11
2023-05-16T05:06:04.118Z,98683.02
2023-05-16T05:08:56.084Z,98684.81
2023-05-16T05:11:33.899Z,98691.80
2023-05-16T05:14:05.375Z,98689.80
2023-05-16T05:16:39.651Z,98684.98
2023-05-16T05:19:16.347Z,98688.73
2023-05-16T05:21:52.680Z,98690.40
2023-05-16T05:24:35.063Z,98685.32
2023-05-16T05:27:15.264Z,98688.71
2023-05-16T05:29:48.710Z,98687.87
2023-05-16T05:32:38.329Z,98689.95
2023-05-16T05:35:11.420Z,98686.70
2023-05-16T05:37:41.113Z,98683.65
2023-05-16T05:40:09.769Z,98680.12
2023-05-16T05:42:38.182Z,98675.35
2023-05-16T05:45:09.177Z,98679.46
2023-05-16T05:47:50.165Z,98678.04
2023-05-16T05:50:22.222Z,98675.52
2023-05-16T05:53:20.052Z,98672.60
2023-05-16T05:55:56.676Z,98675.27
2023-05-16T05:58:30.277Z,98673.40
2023-05-16T06:01:05.727Z,98675.34
2023-05-16T06:03:44.107Z,98676.48
2023-05-16T06:06:28.233Z,98681.06
2023-05-16T06:09:11.093Z,98682.63
2023-05-16T06:11:57.664Z,98687.22
2023-05-16T06:14:51.095Z,98686.28
2023-05-16T06:17:19.517Z,98689.75
2023-05-16T06:19:48.081Z,98691.54
2023-05-16T06:22:16.455Z,98691.02
2023-05-16T06:24:44.769Z,98690.09
2023-05-16T06:27:13.066Z,98685.67
2023-05-16T06:29:43.557Z,98687.22
2023-05-16T06:32:25.570Z,98695.61
2023-05-16T06:35:08.783Z,98706.90
2023-05-16T06:37:57.088Z,98712.30
2023-05-16T06:40:54.675Z,98718.83
2023-05-16T06:43:33.817Z,98726.08
2023-05-16T06:46:16.990Z,98733.82
2023-05-16T06:48:49.523Z,98727.71
2023-05-16T06:51:17.851Z,98717.84
2023-05-16T06:53:46.545Z,98715.43
2023-05-16T06:56:14.918Z,98719.79
2023-05-16T06:58:43.205Z,98722.98
2023-05-16T07:01:17.865Z,98726.27
2023-05-16T07:04:03.373Z,98733.95
2023-05-16T07:06:36.103Z,98737.63
2023-05-16T07:09:12.451Z,98737.64
2023-05-16T07:11:55.817Z,98738.71
2023-05-16T07:14:24.356Z,98735.44
2023-05-16T07:16:53.308Z,98739.52
2023-05-16T07:19:21.822Z,98746.14
2023-05-16T07:21:50.465Z,98749.98
2023-05-16T07:24:18.843Z,98750.20
2023-05-16T07:26:50.375Z,98750.69
2023-05-16T07:29:27.402Z,98752.35
2023-05-16T07:32:27.493Z,98753.38
2023-05-16T07:35:00.726Z,98753.50
2023-05-16T07:37:41.091Z,98751.13
2023-05-16T07:40:22.033Z,98754.26
2023-05-16T07:43:05.974Z,98755.22
2023-05-16T07:45:41.851Z,98754.83
2023-05-16T07:48:14.019Z,98757.26
2023-05-16T07:50:53.217Z,98754.58
2023-05-16T07:53:36.269Z,98749.61
2023-05-16T07:56:13.696Z,98756.81
2023-05-16T07:58:45.078Z,98760.08
2023-05-16T08:01:24.376Z,98760.13
2023-05-16T08:04:05.535Z,98764.04
2023-05-16T08:07:03.257Z,98762.15
2023-05-16T08:09:51.241Z,98760.30
2023-05-16T08:12:30.396Z,98767.21
2023-05-16T08:15:05.137Z,98778.08
2023-05-16T08:17:47.566Z,98777.49
2023-05-16T08:20:19.817Z,98769.58
2023-05-16T08:22:48.732Z,98766.42
2023-05-16T08:25:28.732Z,98760.14
2023-05-16T08:28:04.191Z,98751.73
2023-05-16T08:30:36.662Z,98746.58
2023-05-16T08:33:21.994Z,98748.29
2023-05-16T08:36:00.651Z,98752.17
2023-05-16T08:38:44.755Z,98757.73
2023-05-16T08:41:19.794Z,98773.99
2023-05-16T08:44:31.014Z,98775.45
2023-05-16T08:47:31.173Z,98775.80
2023-05-16T08:50:12.665Z,98780.09
2023-05-16T08:52:48.566Z,98782.48
2023-05-16T08:55:22.201Z,98783.34
2023-05-16T08:58:03.549Z,98779.48
2023-05-16T09:00:37.550Z,98783.51
2023-05-16T09:03:13.337Z,98787.09
2023-05-16T09:05:43.373Z,98785.39
2023-05-16T09:08:11.997Z,98779.70
2023-05-16T09:11:01.753Z,98769.62
2023-05-16T09:13:35.738Z,98771.52
2023-05-16T09:16:23.652Z,98765.98
2023-05-16T09:19:00.213Z,98768.80
2023-05-16T09:21:31.939Z,98762.05
2023-05-16T09:24:14.316Z,98762.66
2023-05-16T09:27:05.351Z,98774.38
2023-05-16T09:29:44.134Z,98782.48
2023-05-16T09:32:17.883Z,98780.25
2023-05-16T09:34:49.506Z,98780.31
2023-05-16T09:37:19.165Z,98784.96
2023-05-16T09:39:50.372Z,98788.59
2023-05-16T09:42:20.204Z,98779.83
2023-05-16T09:44:54.577Z,98768.11
2023-05-16T09:47:22.956Z,98770.62
2023-05-16T09:49:54.671Z,98772.50
2023-05-16T09:52:26.803Z,98759.65
2023-05-16T09:54:55.116Z,98752.34
2023-05-16T09:57:23.793Z,98754.23
2023-05-16T09:59:54.303Z,98756.73
2023-05-16T10:02:23.457Z,98759.14
2023-05-16T10:05:07.230Z,98758.28
2023-05-16T10:07:40.127Z,98752.02
2023-05-16T10:10:16.579Z,98748.30
2023-05-16T10:12:52.770Z,98747.12
2023-05-16T10:15:22.996Z,98745.48
2023-05-16T10:17:53.807Z,98744.89
2023-05-16T10:20:26.697Z,98742.33
2023-05-16T10:23:06.651Z,98741.92
2023-05-16T10:25:48.123Z,98739.36
2023-05-16T10:28:30.763Z,98738.73
2023-05-16T10:31:03.408Z,98735.06
2023-05-16T10:33:38.978Z,98735.26
2023-05-16T10:36:16.993Z,98731.59
2023-05-16T10:39:04.943Z,98731.16
2023-05-16T10:41:44.969Z,98726.23
2023-05-16T10:44:20.233Z,98724.99
2023-05-16T10:46:49.027Z,98729.85
2023-05-16T10:49:34.320Z,98730.91
2023-05-16T10:52:12.529Z,98731.71
2023-05-16T10:54:43.741Z,98728.23
2023-05-16T10:57:23.069Z,98726.61
2023-05-16T11:00:02.069Z,98735.14
2023-05-16T11:02:34.181Z,98737.02
2023-05-16T11:05:12.396Z,98738.36
2023-05-16T11:08:07.741Z,98738.35
2023-05-16T11:10:58.878Z,98736.27
2023-05-16T11:13:39.435Z,98735.00
2023-05-16T11:16:34.950Z,98738.64
2023-05-16T11:19:11.790Z,98742.02
2023-05-16T11:22:21.777Z,98740.85
2023-05-16T11:25:00.146Z,98744.71
2023-05-16T11:30:31.459Z,98752.10
2023-05-16T11:33:04.029Z,98751.99
2023-05-16T11:35:36.614Z,98753.63
2023-05-16T11:38:19.672Z,98748.71
2023-05-16T11:40:54.723Z,98747.80
2023-05-16T11:43:44.997Z,98745.92
2023-05-16T11:46:19.790Z,98741.98
2023-05-16T11:48:49.328Z,98744.55
2023-05-16T11:51:20.406Z,98745.58
2023-05-16T11:53:53.563Z,98750.65
2023-05-16T11:56:29.135Z,98753.04
2023-05-16T11:59:15.674Z,98753.38
2023-05-16T12:01:56.275Z,98749.52
2023-05-16T12:04:54.685Z,98752.79
2023-05-16T12:07:35.660Z,98748.78
2023-05-16T12:10:10.754Z,98748.05
2023-05-16T12:12:53.736Z,98745.60
2023-05-16T12:15:26.196Z,98743.30
2023-05-16T12:17:58.586Z,98744.21
2023-05-16T12:20:35.011Z,98746.75
2023-05-16T12:23:25.180Z,98744.42
2023-05-16T12:26:02.026Z,98744.06
2023-05-16T12:28:40.166Z,98745.77
2023-05-16T12:31:31.072Z,98744.92
2023-05-16T12:34:00.533Z,98748.09
2023-05-16T12:36:44.606Z,98746.20
2023-05-16T12:39:14.393Z,98748.10
2023-05-16T12:41:43.414Z,98750.73
2023-05-16T12:44:23.713Z,98749.52
2023-05-16T12:46:53.022Z,98752.19
2023-05-16T12:49:25.534Z,98753.13
2023-05-16T12:51:56.359Z,98749.84
2023-05-16T12:54:25.688Z,98743.55
2023-05-16T12:56:54.046Z,98744.96
2023-05-16T12:59:22.386Z,98743.29
2023-05-16T13:01:51.148Z,98742.60
2023-05-16T13:04:20.638Z,98742.99
2023-05-16T13:06:59.234Z,98742.02
2023-05-16T13:09:32.002Z,98743.29
2023-05-16T13:12:01.170Z,98739.13
2023-05-16T13:14:29.653Z,98738.77
2023-05-16T13:16:58.311Z,98737.69
2023-05-16T13:19:26.882Z,98734.42
2023-05-16T13:21:56.413Z,98731.98
2023-05-16T13:24:24.669Z,98727.33
2023-05-16T13:26:53.813Z,98723.80
2023-05-16T13:29:22.288Z,98720.27
2023-05-16T13:31:50.706Z,98718.52
2023-05-16T13:34:19.122Z,98713.80
2023-05-16T13:36:54.390Z,98710.41
2023-05-16T13:39:24.017Z,98709.44
2023-05-16T13:41:53.320Z,98707.41
2023-05-16T13:44:22.837Z,98709.29
2023-05-16T13:46:51.493Z,98711.32
2023-05-16T13:49:19.978Z,98715.08
2023-05-16T13:51:48.307Z,98723.28
2023-05-16T13:54:17.317Z,98726.28
2023-05-16T13:56:46.381Z,98724.66
2023-05-16T13:59:18.508Z,98720.19
2023-05-16T14:01:49.424Z,98717.95
2023-05-16T14:04:18.039Z,98719.31
2023-05-16T14:06:46.553Z,98718.10
2023-05-16T14:09:15.651Z,98711.47
2023-05-16T14:11:44.556Z,98714.17
2023-05-16T14:14:12.917Z,98719.38
2023-05-16T14:16:45.944Z,98723.96
2023-05-16T14:19:17.326Z,98725.97
2023-05-16T14:21:46.783Z,98728.55
2023-05-16T14:24:15.050Z,98724.77
2023-05-16T14:26:43.420Z,98718.87
2023-05-16T14:29:13.142Z,98714.04
2023-05-16T14:31:41.654Z,98717.73
2023-05-16T14:34:10.024Z,98720.52
2023-05-16T14:36:38.537Z,98722.14
2023-05-16T14:39:06.847Z,98726.61
2023-05-16T14:41:35.347Z,98725.91
2023-05-16T14:44:03.776Z,98726.66
2023-05-16T14:46:32.342Z,98725.95
2023-05-16T14:49:00.734Z,98724.83
2023-05-16T14:51:29.120Z,98720.30
2023-05-16T14:53:57.453Z,98718.45
2023-05-16T14:56:27.546Z,98717.58
2023-05-16T14:58:55.844Z,98723.38
2023-05-16T15:01:24.228Z,98723.55
2023-05-16T15:03:55.835Z,98723.35
2023-05-16T15:06:25.316Z,98723.81
2023-05-16T15:08:53.841Z,98724.05
2023-05-16T15:11:22.209Z,98727.19
2023-05-16T15:13:50.655Z,98731.84
2023-05-16T15:16:18.967Z,98733.95
2023-05-16T15:18:47.342Z,98733.44
2023-05-16T15:21:16.206Z,98738.20
2023-05-16T15:23:44.519Z,98740.84
2023-05-16T15:26:12.716Z,98738.07
2023-05-16T15:28:41.102Z,98735.65
2023-05-16T15:31:09.397Z,98735.23
2023-05-16T15:33:37.911Z,98739.60
2023-05-16T15:36:06.746Z,98737.80
2023-05-16T15:38:35.506Z,98739.76
2023-05-16T15:43:42.536Z,98743.81
2023-05-16T15:46:11.360Z,98736.98
2023-05-16T15:48:42.986Z,98728.95
2023-05-16T15:51:13.157Z,98725.42
2023-05-16T15:53:41.533Z,98729.10
2023-05-16T15:56:09.939Z,98730.50
2023-05-16T15:58:38.397Z,98729.98
2023-05-16T16:01:06.701Z,98727.21
2023-05-16T16:03:35.166Z,98714.74
2023-05-16T16:06:05.439Z,98706.26
2023-05-16T16:08:33.774Z,98704.70
2023-05-16T16:11:02.103Z,98709.59
2023-05-16T16:13:31.393Z,98715.19
2023-05-16T16:15:59.764Z,98713.08
2023-05-16T16:18:28.536Z,98707.79
2023-05-16T16:20:56.992Z,98701.55
2023-05-16T16:23:25.433Z,98695.23
2023-05-16T16:25:53.721Z,98694.36
2023-05-16T16:28:22.678Z,98689.45
2023-05-16T16:30:51.316Z,98684.84
2023-05-16T16:33:19.768Z,98686.67
2023-05-16T16:35:48.337Z,98687.67
2023-05-16T16:38:17.691Z,98685.11
2023-05-16T16:40:46.014Z,98688.08
2023-05-16T16:43:17.350Z,98691.44
2023-05-16T16:45:45.717Z,98690.12
2023-05-16T16:48:14.115Z,98690.07
2023-05-16T16:50:43.548Z,98687.39
2023-05-16T16:53:12.018Z,98683.47
2023-05-16T16:55:41.046Z,98680.31
2023-05-16T16:58:09.618Z,98680.34
2023-05-16T17:00:37.965Z,98679.02
2023-05-16T17:03:06.610Z,98681.14
2023-05-16T17:05:35.217Z,98681.35
2023-05-16T17:08:04.020Z,98677.54
2023-05-16T17:10:32.580Z,98679.71
2023-05-16T17:13:07.256Z,98677.16
2023-05-16T17:15:36.040Z,98673.33
2023-05-16T17:18:08.417Z,98676.97
2023-05-16T17:20:36.941Z,98678.95
2023-05-16T17:23:05.523Z,98676.55
2023-05-16T17:25:33.891Z,98674.41
2023-05-16T17:28:02.793Z,98672.42
2023-05-16T17:30:31.108Z,98674.91
2023-05-16T17:32:59.367Z,98676.09
2023-05-16T17:35:28.091Z,98674.02
2023-05-16T17:37:56.691Z,98675.45
2023-05-16T17:40:24.986Z,98678.39
2023-05-16T17:42:53.444Z,98680.10
2023-05-16T17:45:21.744Z,98675.70
2023-05-16T17:47:50.264Z,98677.23
2023-05-16T17:50:20.278Z,98677.10
2023-05-16T17:52:48.561Z,98675.50
2023-05-16T17:55:16.914Z,98674.44
2023-05-16T17:57:45.705Z,98672.46
2023-05-16T18:00:15.090Z,98673.05
2023-05-16T18:02:44.789Z,98673.19
2023-05-16T18:05:16.494Z,98670.29
2023-05-16T18:07:44.920Z,98668.95
2023-05-16T18:10:13.747Z,98669.48
2023-05-16T18:12:42.880Z,98672.44
2023-05-16T18:15:12.754Z,98676.63
2023-05-16T18:17:41.233Z,98678.17
2023-05-16T18:20:11.056Z,98681.98
2023-05-16T18:22:39.741Z,98679.90
2023-05-16T18:25:10.099Z,98683.41
2023-05-16T18:27:39.933Z,98684.98
2023-05-16T18:30:10.944Z,98684.18
2023-05-16T18:32:40.091Z,98682.30
2023-05-16T18:35:09.295Z,98686.13
2023-05-16T18:37:37.668Z,98684.45
2023-05-16T18:40:07.201Z,98686.56
2023-05-16T18:42:35.637Z,98686.45
2023-05-16T18:45:04.458Z,98687.41
2023-05-16T18:47:32.950Z,98687.77
2023-05-16T18:50:01.527Z,98688.48
2023-05-16T18:52:29.867Z,98694.45
2023-05-16T18:54:58.750Z,98694.30
2023-05-16T18:57:27.186Z,98695.69
2023-05-16T18:59:56.815Z,98693.61
2023-05-16T19:02:38.022Z,98695.33
2023-05-16T19:07:56.587Z,98697.23
2023-05-16T19:10:25.660Z,98701.36
2023-05-16T19:12:54.484Z,98701.74
2023-05-16T19:15:23.065Z,98703.46
2023-05-16T19:17:51.554Z,98706.05
2023-05-16T19:20:19.919Z,98706.39
2023-05-16T19:22:48.203Z,98708.66
2023-05-16T19:25:16.550Z,98711.31
2023-05-16T19:27:44.866Z,98708.23
2023-05-16T19:30:13.404Z,98705.23
2023-05-16T19:32:41.863Z,98706.52
2023-05-16T19:35:10.868Z,98701.52
2023-05-16T19:37:39.225Z,98701.11
2023-05-16T19:40:08.629Z,98697.77
2023-05-16T19:42:36.907Z,98691.92
2023-05-16T19:45:05.741Z,98690.90
2023-05-16T19:47:34.172Z,98690.30
2023-05-16T19:50:03.236Z,98695.30
2023-05-16T19:52:31.718Z,98691.28
2023-05-16T19:55:00.153Z,98688.83
2023-05-16T19:57:28.685Z,98683.33
2023-05-16T19:59:57.047Z,98683.86
2023-05-16T20:02:25.453Z,98682.45
2023-05-16T20:04:54.024Z,98689.31
2023-05-16T20:07:23.195Z,98687.62
2023-05-16T20:09:51.583Z,98687.13
2023-05-16T20:12:19.902Z,98685.16
2023-05-16T20:14:48.266Z,98682.03
2023-05-16T20:17:16.676Z,98677.14
2023-05-16T20:19:45.581Z,98675.67
2023-05-16T20:22:13.934Z,98670.48
2023-05-16T20:24:42.294Z,98662.70
2023-05-16T20:27:10.722Z,98656.98
2023-05-16T20:29:38.936Z,98654.63
2023-05-16T20:32:07.460Z,98654.17
2023-05-16T20:34:35.810Z,98653.64
2023-05-16T20:37:04.316Z,98649.55
2023-05-16T20:39:33.248Z,98645.96
2023-05-16T20:42:01.549Z,98640.08
2023-05-16T20:44:30.055Z,98638.76
2023-05-16T20:46:58.366Z,98642.88
2023-05-16T20:49:26.606Z,98638.02
2023-05-16T20:51:54.833Z,98635.80
2023-05-16T20:54:23.120Z,98640.69
2023-05-16T20:56:51.409Z,98638.16
2023-05-16T20:59:19.734Z,98639.52
2023-05-16T21:01:48.259Z,98638.28
2023-05-16T21:04:16.910Z,98638.64
2023-05-16T21:06:45.469Z,98640.93
2023-05-16T21:09:13.752Z,98643.84
2023-05-16T21:11:42.081Z,98647.36
2023-05-16T21:14:10.444Z,98648.58
2023-05-16T21:16:38.754Z,98651.05
2023-05-16T21:19:07.202Z,98646.98
2023-05-16T21:21:35.411Z,98643.84
2023-05-16T21:24:04.583Z,98639.96
2023-05-16T21:26:32.942Z,98641.08
2023-05-16T21:29:01.477Z,98640.02
2023-05-16T21:31:29.954Z,98635.36
2023-05-16T21:33:58.274Z,98636.11
2023-05-16T21:36:26.651Z,98632.42
2023-05-16T21:38:55.096Z,98623.88
2023-05-16T21:41:29.086Z,98622.63
2023-05-16T21:43:57.483Z,98625.96
2023-05-16T21:46:26.453Z,98621.29
2023-05-16T21:48:54.769Z,98617.05
2023-05-16T21:51:23.231Z,98615.52
2023-05-16T21:53:51.507Z,98613.21
2023-05-16T21:56:19.896Z,98611.05
2023-05-16T21:58:48.317Z,98610.85
2023-05-16T22:01:17.075Z,98612.55
2023-05-16T22:03:45.471Z,98613.02
2023-05-16T22:06:13.870Z,98618.11
2023-05-16T22:08:45.018Z,98619.23
2023-05-16T22:11:13.572Z,98615.00
2023-05-16T22:13:41.960Z,98617.36
2023-05-16T22:16:11.228Z,98617.16
2023-05-16T22:18:39.755Z,98608.82
2023-05-16T22:21:08.358Z,98608.52
2023-05-16T22:23:36.638Z,98603.59
2023-05-16T22:26:05.381Z,98603.84
2023-05-16T22:28:33.787Z,98603.98
2023-05-16T22:31:02.005Z,98601.13
2023-05-16T22:33:30.609Z,98602.35
2023-05-16T22:35:59.047Z,98607.86
2023-05-16T22:38:27.257Z,98609.85
2023-05-16T22:40:56.022Z,98608.67
2023-05-16T22:43:24.423Z,98609.54
2023-05-16T22:45:52.765Z,98611.18
2023-05-16T22:48:21.089Z,98609.52
2023-05-16T22:50:49.586Z,98615.89
2023-05-16T22:53:17.791Z,98616.30
2023-05-16T22:55:46.338Z,98609.23
2023-05-16T22:58:14.523Z,98606.83
2023-05-16T23:00:42.774Z,98604.98
2023-05-16T23:03:11.283Z,98600.67
2023-05-16T23:05:39.733Z,98601.77
2023-05-16T23:08:08.074Z,98596.95
2023-05-16T23:10:37.115Z,98595.67
2023-05-16T23:13:05.654Z,98590.58
2023-05-16T23:15:33.885Z,98587.48
2023-05-16T23:18:02.530Z,98583.42
2023-05-16T23:20:30.935Z,98584.54
2023-05-16T23:23:00.991Z,98580.85
2023-05-16T23:25:29.663Z,98577.55
2023-05-16T23:27:58.290Z,98574.55
2023-05-16T23:30:26.814Z,98571.70
2023-05-16T23:32:55.383Z,98569.45
2023-05-16T23:35:23.690Z,98570.95
2023-05-16T23:37:52.016Z,98568.93
2023-05-16T23:40:20.299Z,98566.50
2023-05-16T23:42:48.621Z,98565.02
2023-05-16T23:45:16.862Z,98567.46
2023-05-16T23:47:45.999Z,98571.77
2023-05-16T23:50:16.355Z,98571.27
2023-05-16T23:52:44.647Z,98569.80
2023-05-16T23:55:13.502Z,98567.75
2023-05-16T23:57:41.747Z,98567.27
